Home > Products > Valid Products > TAF

000
FTUS42 KMLB 301100
TAFMCO
TAF
KMCO 301135Z 3012/0112 24005KT P6SM VCSH SCT006 BKN014 BKN035
      TEMPO 3012/3013 BKN006
     FM301300 25006KT P6SM VCSH SCT010 BKN020
      TEMPO 3013/3016 5SM SHRA BKN025
     FM301600 28007KT P6SM VCSH SCT010 OVC035
      TEMPO 3016/3020 3SM SHRA BKN025
     FM302000 29007KT P6SM SCT020 OVC040
      TEMPO 3020/3023 2SM SHRA BKN020
     FM010000 30004KT P6SM VCSH SCT020 BKN040
     FM010300 31003KT P6SM SCT020 SCT100 BKN250=



000
FTUS42 KMLB 301100
TAFDAB
TAF
KDAB 301135Z 3012/0112 24005KT P6SM OVC005
     FM301300 27006KT P6SM VCSH SCT010 BKN020
     FM301600 28007KT P6SM VCSH SCT010 OVC035
      TEMPO 3016/3020 3SM SHRA BKN025
     FM302000 01008KT P6SM SCT020 OVC040
      TEMPO 3020/3023 2SM SHRA BKN020
     FM010000 01005KT P6SM VCSH SCT020 BKN100=



000
FTUS42 KMLB 301100
TAFSFB
TAF
KSFB 301135Z 3012/0112 25004KT P6SM VCSH SCT006 BKN014
      TEMPO 3012/3013 BKN006
     FM301300 26006KT P6SM VCSH SCT010 BKN020
     FM301600 29007KT P6SM VCSH SCT010 OVC035
      TEMPO 3016/3020 3SM SHRA BKN025
     FM302000 32008KT P6SM SCT020 OVC040
      TEMPO 3020/3023 2SM SHRA BKN020
     FM010000 30004KT P6SM VCSH SCT020 BKN040
     FM010300 32003KT P6SM SCT020 SCT100 BKN250=



000
FTUS42 KMLB 301100
TAFVRB
TAF
KVRB 301135Z 3012/0112 26005KT P6SM VCSH SCT005 BKN120
      TEMPO 3014/3016 5SM SHRA
     FM301600 27007KT P6SM VCSH SCT010 OVC035
      TEMPO 3016/3020 3SM SHRA BKN025
     FM302100 29008KT P6SM SCT020 OVC040
      TEMPO 3021/3023 2SM SHRA BKN020
     FM010000 28006KT P6SM VCSH SCT020 BKN080=



000
FTUS42 KMLB 301100
TAFMLB
TAF
KMLB 301135Z 3012/0112 26005KT P6SM VCSH SCT010 BKN025
      TEMPO 3014/3016 5SM SHRA
     FM301600 27007KT P6SM VCSH SCT010 OVC035
      TEMPO 3016/3020 3SM SHRA BKN025
     FM302100 31008KT P6SM SCT020 OVC040
      TEMPO 3021/3023 2SM SHRA BKN020
     FM010000 29006KT P6SM VCSH SCT020 BKN080=



000
FTUS42 KMLB 301000 AAB
TAFSFB
TAF AMD
KSFB 301009Z 3010/0106 25004KT P6SM FEW004 BKN014
      TEMPO 3010/3012 5SM BR BKN004
     FM301200 26006KT P6SM VCSH SCT010 BKN020
     FM301600 29007KT P6SM VCSH SCT010 OVC035
      TEMPO 3016/3020 3SM SHRA BKN025
     FM302000 32008KT P6SM SCT020 OVC040
      TEMPO 3020/3023 2SM SHRA BKN020
     FM010000 30004KT P6SM VCSH SCT020 BKN040
     FM010300 32003KT P6SM SCT020 SCT100 BKN250=



000
FTUS42 KMLB 301000 AAC
TAFMCO
TAF AMD
KMCO 301009Z 3010/0106 24005KT P6SM SCT006 BKN014 BKN035
      TEMPO 3010/3012 BKN006
     FM301200 25006KT P6SM VCSH SCT010 BKN020
     FM301600 28007KT P6SM VCSH SCT010 OVC035
      TEMPO 3016/3020 3SM SHRA BKN025
     FM302000 29007KT P6SM SCT020 OVC040
      TEMPO 3020/3023 2SM SHRA BKN020
     FM010000 30004KT P6SM VCSH SCT020 BKN040
     FM010300 31003KT P6SM SCT020 SCT100 BKN250=



000
FTUS42 KMLB 300800 AAB
TAFMCO
TAF AMD
KMCO 300858Z 3009/0106 24005KT P6SM OVC006
     FM301200 25006KT P6SM VCSH SCT010 BKN020
     FM301600 28007KT P6SM VCSH SCT010 OVC035
      TEMPO 3016/3020 3SM SHRA BKN025
     FM302000 29007KT P6SM SCT020 OVC040
      TEMPO 3020/3023 2SM SHRA BKN020
     FM010000 30004KT P6SM VCSH SCT020 BKN040
     FM010300 31003KT P6SM SCT020 SCT100 BKN250=



000
FTUS42 KMLB 300800 AAA
TAFSFB
TAF AMD
KSFB 300807Z 3008/0106 23005KT P6SM FEW004 BKN010
      TEMPO 3009/3012 5SM BR BKN004
     FM301200 26006KT P6SM VCSH SCT010 BKN020
     FM301600 29007KT P6SM VCSH SCT010 OVC035
      TEMPO 3016/3020 3SM SHRA BKN025
     FM302000 32008KT P6SM SCT020 OVC040
      TEMPO 3020/3023 2SM SHRA BKN020
     FM010000 30004KT P6SM VCSH SCT020 BKN040
     FM010300 32003KT P6SM SCT020 SCT100 BKN250=



000
FTUS42 KMLB 300800 AAA
TAFMCO
TAF AMD
KMCO 300805Z 3008/0106 20004KT P6SM SCT003 OVC005
      TEMPO 3008/3012 2SM BR BKN003
     FM301200 25006KT P6SM VCSH SCT010 BKN020
     FM301600 28007KT P6SM VCSH SCT010 OVC035
      TEMPO 3016/3020 3SM SHRA BKN025
     FM302000 29007KT P6SM SCT020 OVC040
      TEMPO 3020/3023 2SM SHRA BKN020
     FM010000 30004KT P6SM VCSH SCT020 BKN040
     FM010300 31003KT P6SM SCT020 SCT100 BKN250=



000
FTUS42 KMLB 300500
TAFMLB
TAF
KMLB 300529Z 3006/0106 19004KT P6SM FEW020 SCT120
     FM300900 23005KT P6SM SCT010 BKN020
      TEMPO 3009/3012 5SM BR BKN010
     FM301200 26007KT P6SM VCSH SCT010 BKN020
     FM301600 27007KT P6SM VCSH SCT010 OVC035
      TEMPO 3016/3020 3SM SHRA BKN025
     FM302100 31008KT P6SM SCT020 OVC040
      TEMPO 3021/3023 2SM SHRA BKN020
     FM010000 29006KT P6SM VCSH SCT020 BKN080=



000
FTUS42 KMLB 300500
TAFVRB
TAF
KVRB 300529Z 3006/0106 19004KT P6SM FEW020 SCT120
     FM300900 23005KT P6SM SCT010 BKN020
      TEMPO 3009/3012 5SM BR BKN010
     FM301200 26007KT P6SM VCSH SCT010 BKN020
     FM301600 27007KT P6SM VCSH SCT010 OVC035
      TEMPO 3016/3020 3SM SHRA BKN025
     FM302100 29008KT P6SM SCT020 OVC040
      TEMPO 3021/3023 2SM SHRA BKN020
     FM010000 28006KT P6SM VCSH SCT020 BKN080=



000
FTUS42 KMLB 300500
TAFDAB
TAF
KDAB 300529Z 3006/0106 22004KT P6SM SCT006 BKN020 OVC120
      TEMPO 3008/3012 BKN006
     FM301200 27006KT P6SM VCSH SCT010 BKN020
     FM301600 28007KT P6SM VCSH SCT010 OVC035
      TEMPO 3016/3020 3SM SHRA BKN025
     FM302000 01008KT P6SM SCT020 OVC040
      TEMPO 3020/3023 2SM SHRA BKN020
     FM010000 01005KT P6SM VCSH SCT020 BKN100=



000
FTUS42 KMLB 300500
TAFSFB
TAF
KSFB 300529Z 3006/0106 21005KT P6SM SCT008 SCT012 BKN150
      TEMPO 3006/3009 BKN008 OVC015
     FM300900 22006KT P6SM SCT008 OVC012
      TEMPO 3009/3012 5SM BR OVC008
     FM301200 26006KT P6SM VCSH SCT010 BKN020
     FM301600 29007KT P6SM VCSH SCT010 OVC035
      TEMPO 3016/3020 3SM SHRA BKN025
     FM302000 32008KT P6SM SCT020 OVC040
      TEMPO 3020/3023 2SM SHRA BKN020
     FM010000 30004KT P6SM VCSH SCT020 BKN040
     FM010300 32003KT P6SM SCT020 SCT100 BKN250=



000
FTUS42 KMLB 300500
TAFMCO
TAF
KMCO 300529Z 3006/0106 20003KT P6SM SCT004 SCT010 BKN150
      TEMPO 3006/3009 BKN010 OVC040
     FM300900 22006KT P6SM SCT008 OVC012
      TEMPO 3009/3011 3SM BR OVC008
     FM301200 25006KT P6SM VCSH SCT010 BKN020
     FM301600 28007KT P6SM VCSH SCT010 OVC035
      TEMPO 3016/3020 3SM SHRA BKN025
     FM302000 29007KT P6SM SCT020 OVC040
      TEMPO 3020/3023 2SM SHRA BKN020
     FM010000 30004KT P6SM VCSH SCT020 BKN040
     FM010300 31003KT P6SM SCT020 SCT100 BKN250=



000
FTUS42 KMLB 300400 AAB
TAFMCO
TAF AMD
KMCO 300445Z 3005/3024 20003KT P6SM SCT004 SCT010 BKN150
      TEMPO 3006/3007 BKN010 OVC040
     FM300700 22006KT P6SM SCT008 OVC012
      TEMPO 3007/3011 OVC008
     FM301200 25006KT P6SM VCSH SCT010 BKN020
     FM301600 28007KT P6SM VCSH SCT010 OVC035
      TEMPO 3016/3020 3SM SHRA BKN025
     FM302000 29007KT P6SM SCT020 OVC040
      TEMPO 3020/3023 2SM SHRA BKN020=



000
FTUS42 KMLB 300400 AAA
TAFSFB
TAF AMD
KSFB 300443Z 3005/3024 21005KT P6SM SCT008 BKN015 OVC025
      TEMPO 3005/3009 BKN008 OVC015
     FM300900 22006KT P6SM SCT008 OVC012
      TEMPO 3009/3012 OVC008
     FM301200 26006KT P6SM VCSH SCT010 BKN020
     FM301600 29007KT P6SM VCSH SCT010 OVC035
      TEMPO 3016/3020 3SM SHRA BKN025
     FM302000 32008KT P6SM SCT020 OVC040
      TEMPO 3020/3023 2SM SHRA BKN020=



000
FTUS42 KMLB 300400 AAA
TAFDAB
TAF AMD
KDAB 300439Z 3005/3024 22004KT P6SM FEW003 BKN020 OVC040
     FM301200 27006KT P6SM VCSH SCT010 BKN020
     FM301600 28007KT P6SM VCSH SCT010 OVC035
      TEMPO 3016/3020 3SM SHRA BKN025
     FM302000 01008KT P6SM SCT020 OVC040
      TEMPO 3020/3023 2SM SHRA BKN020=



000
FTUS42 KMLB 300200 AAA
TAFMCO
TAF AMD
KMCO 300257Z 3003/3024 VRB03KT P6SM FEW010 SCT120 OVC200
     FM301200 26008KT P6SM SCT010 OVC030
     FM301500 31007KT P6SM VCSH SCT025 OVC040=



000
FTUS42 KMLB 300000 AAA
TAFMLB
TAF AMD
KMLB 300036Z 3001/3024 27003KT 5SM -RA BR FEW025 BKN050 OVC100
     FM300200 24003KT P6SM FEW040 OVC100
     FM301400 28008KT P6SM VCSH FEW025 OVC060=



000
FTUS42 KMLB 300000 AAA
TAFVRB
TAF AMD
KVRB 300034Z 3001/3024 28010KT 5SM -RA BR SCT040 BKN100
     FM300200 25003KT P6SM FEW040 OVC080
     FM301400 28008KT P6SM VCSH FEW025 OVC060=



000
FTUS42 KMLB 292300
TAFMCO
TAF
KMCO 292335Z 3000/3024 32006KT P6SM -RA SCT010 BKN080 OVC120
      TEMPO 3000/3003 3SM SHRA BKN020 OVC040
     FM300400 23003KT P6SM SCT020 BKN040 OVC060
     FM301200 26008KT P6SM SCT010 OVC030
     FM301500 31007KT P6SM VCSH SCT025 OVC040=



000
FTUS42 KMLB 292300
TAFMLB
TAF
KMLB 292335Z 3000/3024 31015G25KT 2SM +TSRA SCT010 BKN020CB OVC060
     FM300100 23005KT P6SM VCSH SCT025 OVC050
      TEMPO 3001/3003 5SM RA BKN025 OVC050
     FM300400 24003KT P6SM SCT030 OVC080
     FM301400 28008KT P6SM VCSH SCT010 OVC035=



000
FTUS42 KMLB 292300
TAFVRB
TAF
KVRB 292335Z 3000/3024 31015G25KT 2SM +TSRA SCT010 BKN020CB OVC060
     FM300100 25004KT P6SM VCSH SCT025 OVC050
      TEMPO 3001/3003 5SM RA BKN025 OVC050
     FM300400 24003KT P6SM SCT030 OVC080
     FM301400 28008KT P6SM VCSH SCT010 OVC035=



000
FTUS42 KMLB 292300
TAFSFB
TAF
KSFB 292335Z 3000/3024 28004KT P6SM -RA SCT010 BKN035 OVC080
      TEMPO 3000/3003 3SM SHRA BKN020 OVC040
     FM300400 23003KT P6SM SCT020 BKN040 OVC060
     FM301200 27008KT P6SM SCT010 OVC030
     FM301500 31007KT P6SM VCSH SCT025 OVC040=



000
FTUS42 KMLB 292300
TAFDAB
TAF
KDAB 292335Z 3000/3024 22003KT P6SM -RA FEW030 SCT060 OVC100
      TEMPO 3000/3003 5SM -RA BR BKN025 OVC050
     FM300300 00000KT P6SM SCT020 BKN120 OVC250
     FM301200 28004KT P6SM SCT010 OVC030
     FM301500 32007KT P6SM VCSH SCT010 OVC035=



000
FTUS42 KMLB 292200 AAB
TAFDAB
TAF AMD
KDAB 292251Z 2923/3018 21003KT P6SM -RA SCT050 BKN080 OVC100
      TEMPO 2923/3003 5SM -RA BR BKN025 OVC050
     FM300300 00000KT P6SM SCT020 BKN120 OVC250
     FM301400 31008KT P6SM VCSH SCT010 OVC035=



000
FTUS42 KMLB 292200 AAB
TAFVRB
TAF AMD
KVRB 292241Z 2923/3018 12007KT P6SM FEW035 OVC100
     FM292300 11006KT P6SM VCTS SCT030CB OVC050
      TEMPO 2923/2924 27015G30KT 1SM +TSRA BKN008CB OVC015
     FM300000 23008KT P6SM VCSH SCT025 OVC050
      TEMPO 3000/3002 5SM RA BKN025 OVC050
     FM300200 24003KT P6SM SCT030 OVC080
     FM301400 26008KT P6SM VCSH SCT010 OVC035=



000
FTUS42 KMLB 292200 AAA
TAFMLB
TAF AMD
KMLB 292234Z 2923/3018 10008KT P6SM -RA SCT035 OVC060
     FM292300 11006KT P6SM VCTS SCT030CB OVC050
      TEMPO 2923/2924 27015G30KT 1SM +TSRA BKN008CB OVC015
     FM300000 23012KT P6SM VCSH SCT025 OVC050
      TEMPO 3000/3002 5SM RA BKN025 OVC050
     FM300200 24004KT P6SM SCT030 OVC080
     FM301400 26008KT P6SM VCSH SCT010 OVC035=



000
FTUS42 KMLB 292100 AAA
TAFVRB
TAF AMD
KVRB 292102Z 2921/3018 13010KT P6SM FEW060 BKN100 OVC120
      TEMPO 2921/2924 3SM RA BKN020 OVC040
     FM300000 19005KT P6SM VCSH SCT030 BKN050 OVC100
      TEMPO 3000/3002 5SM SHRA BKN025
     FM300300 24003KT P6SM SCT020 BKN120 OVC250
     FM301400 25008KT P6SM VCSH SCT010 OVC035=



000
FTUS42 KMLB 292000 AAA
TAFMCO
TAF AMD
KMCO 292055Z 2921/3018 22006KT 5SM -RA SCT012 BKN025 OVC040
      TEMPO 2921/2922 VRB12G25KT 1SM +RA BKN008 OVC015
     FM300000 VRB03KT P6SM VCSH SCT025 BKN035 OVC100
      TEMPO 3000/3003 5SM SHRA BKN020 OVC040
     FM300600 20004KT P6SM SCT020 BKN120 OVC250
     FM301300 22008KT P6SM VCSH SCT010 OVC035=



000
FTUS42 KMLB 292000 AAA
TAFDAB
TAF AMD
KDAB 292022Z 2920/3018 21006KT P6SM VCSH SCT010 BKN050 OVC120
      TEMPO 2920/2923 2SM +RA BKN010 OVC020
     FM292300 VRB03KT P6SM VCSH SCT030 BKN050 OVC100
      TEMPO 2923/3002 3SM SHRA BKN025
     FM300600 23003KT P6SM SCT020 BKN120 OVC250
     FM301400 31008KT P6SM VCSH SCT010 OVC035=



000
FTUS42 KMLB 292000 AAA
TAFSFB
TAF AMD
KSFB 292015Z 2920/3018 01008KT P6SM VCSH BKN015 BKN040 OVC080
      TEMPO 2920/2923 2SM +RA BKN010 OVC020
     FM292300 VRB03KT P6SM VCSH SCT030 BKN050 OVC100
      TEMPO 2923/3002 3SM SHRA BKN025
     FM300600 22004KT P6SM SCT020 BKN120 OVC250
     FM301300 29008KT P6SM VCSH SCT010 OVC035=



000
FTUS42 KMLB 291700
TAFMLB
TAF
KMLB 291735Z 2918/3018 12008KT P6SM VCTS SCT025CB BKN150
      TEMPO 2918/2921 2SM +TSRA BKN020CB
     FM292300 11006KT P6SM VCSH SCT030 BKN050 OVC100
      TEMPO 2923/3002 3SM SHRA BKN025
     FM300400 23004KT P6SM SCT020 BKN120 OVC250
     FM301400 26008KT P6SM VCSH SCT010 OVC035=



000
FTUS42 KMLB 291700
TAFMCO
TAF
KMCO 291735Z 2918/3018 19005KT P6SM VCTS SCT028CB SCT150 OVC250
      TEMPO 2919/2922 2SM +TSRA BKN020CB
     FM300000 VRB03KT P6SM VCSH SCT025 BKN035 OVC100
      TEMPO 3000/3003 3SM SHRA BKN025
     FM300600 20004KT P6SM SCT020 BKN120 OVC250
     FM301300 22008KT P6SM VCSH SCT010 OVC035=



000
FTUS42 KMLB 291700
TAFVRB
TAF
KVRB 291735Z 2918/3018 12012KT P6SM VCTS SCT025CB BKN150
      TEMPO 2919/2923 2SM +TSRA BKN020CB
     FM300200 18005KT P6SM VCSH SCT030 BKN050 OVC100
      TEMPO 3002/3005 3SM SHRA BKN025
     FM300600 24004KT P6SM SCT020 BKN120 OVC250
     FM301400 25008KT P6SM VCSH SCT010 OVC035=



000
FTUS42 KMLB 291700
TAFSFB
TAF
KSFB 291735Z 2918/3018 15007KT P6SM VCTS SCT025CB SCT150 OVC250
      TEMPO 2919/2922 2SM +TSRA BKN020CB
     FM300000 VRB03KT P6SM VCSH SCT030 BKN050 OVC100
      TEMPO 3000/3003 3SM SHRA BKN025
     FM300600 22004KT P6SM SCT020 BKN120 OVC250
     FM301300 29008KT P6SM VCSH SCT010 OVC035=



000
FTUS42 KMLB 291700
TAFDAB
TAF
KDAB 291735Z 2918/3018 10008KT P6SM VCTS BKN017 BKN035CB OVC080
      TEMPO 2918/2921 2SM +TSRA BKN020CB
     FM292300 VRB03KT P6SM VCSH SCT030 BKN050 OVC100
      TEMPO 2923/3002 3SM SHRA BKN025
     FM300600 23003KT P6SM SCT020 BKN120 OVC250
     FM301400 31008KT P6SM VCSH SCT010 OVC035=



000
FTUS42 KMLB 291500 AAA
TAFMCO
TAF AMD
KMCO 291500Z 2915/3012 15008KT P6SM VCSH SCT020 SCT140 BKN230
     FM291800 22006KT P6SM VCTS BKN035CB BKN060 OVC120
      TEMPO 2919/2922 2SM +TSRA BKN020CB
     FM300000 21005KT P6SM VCSH SCT030 BKN050 OVC100
      TEMPO 3000/3003 3SM SHRA BKN025
     FM300600 20004KT P6SM SCT020 BKN120 OVC250=



000
FTUS42 KMLB 291100
TAFMLB
TAF
KMLB 291136Z 2912/3012 VRB02KT P6SM FEW020 SCT150 OVC200
     FM291300 14007KT P6SM SCT025 BKN080 BKN120
     FM291800 12009KT P6SM VCTS SCT030CB BKN040 OVC100
      TEMPO 2919/2923 2SM +TSRA BKN020CB
     FM300000 23005KT P6SM VCSH SCT030 BKN050 OVC100
      TEMPO 3000/3004 3SM SHRA BKN025
     FM300600 22005KT P6SM SCT020 BKN120 OVC250=



000
FTUS42 KMLB 291100
TAFVRB
TAF
KVRB 291136Z 2912/3012 VRB02KT P6SM VCSH FEW020 SCT150 OVC200
     FM291300 15007KT P6SM VCSH SCT020 BKN080 BKN120
     FM291800 12009KT P6SM VCTS SCT030CB BKN040 OVC100
      TEMPO 2919/2923 2SM +TSRA BKN020CB
     FM300000 23005KT P6SM VCSH SCT030 BKN050 OVC100
      TEMPO 3000/3004 3SM SHRA BKN025
     FM300600 22004KT P6SM SCT020 BKN120 OVC250=



000
FTUS42 KMLB 291100
TAFMCO
TAF
KMCO 291136Z 2912/3012 07004KT P6SM VCSH SCT025 BKN130 OVC200
     FM291400 17006KT P6SM VCSH SCT020 OVC120
     FM291800 22006KT P6SM VCTS BKN035CB BKN060 OVC120
      TEMPO 2919/2922 2SM +TSRA BKN020CB
     FM300000 21005KT P6SM VCSH SCT030 BKN050 OVC100
      TEMPO 3000/3003 3SM SHRA BKN025
     FM300600 20004KT P6SM SCT020 BKN120 OVC250=



000
FTUS42 KMLB 291100
TAFDAB
TAF
KDAB 291136Z 2912/3012 02003KT P6SM SCT020 BKN045 OVC200
     FM291400 16005KT P6SM VCSH SCT020 OVC120
     FM291800 16006KT P6SM VCTS BKN035CB BKN060 OVC120
      TEMPO 2919/2923 2SM +TSRA BKN020CB
     FM300000 24005KT P6SM VCSH SCT030 BKN050 OVC100
      TEMPO 3000/3004 3SM SHRA BKN025
     FM300600 22006KT P6SM SCT020 BKN120 OVC250=



000
FTUS42 KMLB 291100
TAFSFB
TAF
KSFB 291136Z 2912/3012 07003KT P6SM SCT025 BKN130 OVC200
     FM291400 17006KT P6SM VCSH SCT020 OVC120
     FM291800 22006KT P6SM VCTS BKN035CB BKN060 OVC120
      TEMPO 2919/2922 2SM +TSRA BKN020CB
     FM300000 23005KT P6SM VCSH SCT030 BKN050 OVC100
      TEMPO 3000/3003 3SM SHRA BKN025
     FM300600 21005KT P6SM SCT020 BKN120 OVC250=



000
FTUS42 KMLB 290900 AAA
TAFMCO
TAF AMD
KMCO 290911Z 2909/3006 VRB03KT P6SM FEW020 BKN150 OVC200
     FM291400 17006KT P6SM VCSH SCT020 OVC120
     FM291800 22006KT P6SM VCTS BKN035CB BKN060 OVC120
      TEMPO 2919/2922 2SM +TSRA BKN020CB
     FM300000 23005KT P6SM VCSH SCT030 BKN050 OVC100
      TEMPO 3000/3003 3SM SHRA BKN025=



000
FTUS42 KMLB 290800 AAB
TAFDAB
TAF AMD
KDAB 290826Z 2908/3006 00000KT 5SM BR SCT002 OVC250
      TEMPO 2908/2911 2SM BR BKN002
     FM291400 16005KT P6SM VCSH SCT020 OVC120
     FM291800 16006KT P6SM VCTS BKN035CB BKN060 OVC120
      TEMPO 2919/2923 2SM +TSRA BKN020CB
     FM300000 24005KT P6SM VCSH SCT030 BKN050 OVC100
      TEMPO 3000/3004 3SM SHRA BKN025=



000
FTUS42 KMLB 290700 AAA
TAFDAB
TAF AMD
KDAB 290750Z 2908/3006 27003KT P6SM SCT004 OVC250
      TEMPO 2908/2911 BKN004
     FM291400 16005KT P6SM VCSH SCT020 OVC120
     FM291800 16006KT P6SM VCTS BKN035CB BKN060 OVC120
      TEMPO 2919/2923 2SM +TSRA BKN020CB
     FM300000 24005KT P6SM VCSH SCT030 BKN050 OVC100
      TEMPO 3000/3004 3SM SHRA BKN025=



000
FTUS42 KMLB 290500
TAFVRB
TAF
KVRB 290526Z 2906/3006 00000KT P6SM SCT020 SCT150 BKN250
     FM291300 15007KT P6SM SCT020 BKN080 BKN120
     FM291800 12009KT P6SM VCTS SCT030CB BKN040 OVC100
      TEMPO 2919/2923 2SM +TSRA BKN020CB
     FM300000 23005KT P6SM VCSH SCT030 BKN050 OVC100
      TEMPO 3000/3004 3SM SHRA BKN025=



000
FTUS42 KMLB 290500
TAFMCO
TAF
KMCO 290526Z 2906/3006 VRB03KT P6SM FEW020 BKN150 OVC200
     FM291400 17006KT P6SM VCSH SCT020 OVC120
     FM291800 22006KT P6SM VCTS BKN035CB BKN060 OVC120
      TEMPO 2919/2922 2SM +TSRA BKN020CB
     FM300000 23005KT P6SM VCSH SCT030 BKN050 OVC100
      TEMPO 3000/3003 3SM SHRA BKN025=



000
FTUS42 KMLB 290500
TAFDAB
TAF
KDAB 290526Z 2906/3006 00000KT P6SM FEW040 BKN150
     FM291400 16005KT P6SM VCSH SCT020 OVC120
     FM291800 16006KT P6SM VCTS BKN035CB BKN060 OVC120
      TEMPO 2919/2923 2SM +TSRA BKN020CB
     FM300000 24005KT P6SM VCSH SCT030 BKN050 OVC100
      TEMPO 3000/3004 3SM SHRA BKN025=



000
FTUS42 KMLB 290500
TAFSFB
TAF
KSFB 290526Z 2906/3006 VRB03KT P6SM FEW045 BKN150 OVC200
     FM291400 17006KT P6SM VCSH SCT020 OVC120
     FM291800 22006KT P6SM VCTS BKN035CB BKN060 OVC120
      TEMPO 2919/2922 2SM +TSRA BKN020CB
     FM300000 23005KT P6SM VCSH SCT030 BKN050 OVC100
      TEMPO 3000/3003 3SM SHRA BKN025=



000
FTUS42 KMLB 290500
TAFMLB
TAF
KMLB 290526Z 2906/3006 13003KT P6SM SCT020 SCT150 BKN250
     FM291300 14007KT P6SM SCT025 BKN080 BKN120
     FM291800 12009KT P6SM VCTS SCT030CB BKN040 OVC100
      TEMPO 2919/2923 2SM +TSRA BKN020CB
     FM300000 23005KT P6SM VCSH SCT030 BKN050 OVC100
      TEMPO 3000/3004 3SM SHRA BKN025=



000
FTUS42 KMLB 290400 AAC
TAFMCO
TAF AMD
KMCO 290458Z 2905/2924 VRB03KT P6SM FEW020 BKN150 OVC200
     FM291400 17006KT P6SM VCSH SCT020 OVC120
     FM291800 22006KT P6SM VCTS BKN035CB BKN060 OVC120=



000
FTUS42 KMLB 290300 AAB
TAFMCO
TAF AMD
KMCO 290320Z 2903/2924 20005KT P6SM SCT015 BKN025 BKN200
      TEMPO 2903/2906 -SHRA BKN020
     FM290600 VRB03KT P6SM FEW015 SCT050 BKN120
     FM291400 17006KT P6SM VCSH SCT020 OVC120
     FM291800 22006KT P6SM VCTS BKN035CB BKN060 OVC120=



000
FTUS42 KMLB 290200 AAA
TAFMCO
TAF AMD
KMCO 290228Z 2902/2924 VRB03KT P6SM VCTS FEW045CB BKN160 OVC250
      TEMPO 2902/2904 24012G20KT 3SM TSRA BKN030CB
     FM291400 17006KT P6SM VCSH SCT020 OVC120
     FM291800 22006KT P6SM VCTS BKN035CB BKN060 OVC120=



000
FTUS42 KMLB 282300 RRA
TAFVRB
TAF
KVRB 282342Z 2900/2924 11006KT P6SM SCT025 BKN150 BKN250
     FM290300 VRB03KT P6SM SCT020 SCT150 BKN250
     FM291300 15007KT P6SM SCT020 BKN080 BKN120
     FM291800 12009KT P6SM VCTS SCT030CB BKN040 OVC100=



000
FTUS42 KMLB 282300 RRA
TAFMLB
TAF
KMLB 282342Z 2900/2924 10007KT P6SM SCT025 BKN150 BKN250
     FM290300 13003KT P6SM SCT020 SCT150 BKN250
     FM291300 14007KT P6SM SCT025 BKN080 BKN120
     FM291800 12009KT P6SM VCTS SCT030CB BKN040 OVC100=



000
FTUS42 KMLB 282300 RRA
TAFMCO
TAF
KMCO 282342Z 2900/2924 VRB03KT P6SM FEW045 BKN160 BKN300
     FM291400 17006KT P6SM VCSH SCT020 OVC120
     FM291800 22006KT P6SM VCTS BKN035CB BKN060 OVC120=



000
FTUS42 KMLB 282300 RRA
TAFDAB
TAF
KDAB 282342Z 2900/2924 VRB03KT P6SM SCT050 BKN150 BKN250
     FM290300 VRB02KT P6SM FEW020 BKN120
     FM291400 16005KT P6SM VCSH SCT020 OVC120
     FM291800 17005KT P6SM VCTS BKN035CB BKN060 OVC120=



000
FTUS42 KMLB 282300 RRA
TAFSFB
TAF
KSFB 282342Z 2900/2924 VRB03KT P6SM FEW045 BKN160 BKN300
     FM291400 17006KT P6SM VCSH SCT020 OVC120
     FM291800 22006KT P6SM VCTS BKN035CB BKN060 OVC120=



000
FTUS42 KMLB 282100 AAA
TAFMCO
TAF AMD
KMCO 282113Z 2821/2918 10009KT P6SM VCTS SCT045CB SCT140 SCT250
     FM282300 15003KT P6SM FEW050 SCT140 BKN250
     FM290300 VRB02KT P6SM FEW020 BKN120
     FM291400 17006KT P6SM VCSH SCT020 OVC120=



000
FTUS42 KMLB 281900 AAA
TAFSFB
TAF AMD
KSFB 281925Z 2819/2918 12008KT P6SM VCSH SCT020 BKN040
     FM282000 11008KT P6SM VCTS SCT040CB BKN100 OVC250
      TEMPO 2820/2823 2SM TSRA SCT010CB BKN025 OVC040
     FM282300 12003KT P6SM FEW030 OVC250
     FM290300 VRB02KT P6SM FEW020 BKN120
     FM291400 16005KT P6SM VCSH SCT020 OVC150=



000
FTUS42 KMLB 281700
TAFSFB
TAF
KSFB 281723Z 2818/2918 12008KT P6SM VCSH SCT020 BKN030 BKN170
     FM282000 11008KT P6SM VCTS SCT040CB BKN100 OVC250
      TEMPO 2820/2823 2SM TSRA SCT010CB BKN025 OVC040
     FM282300 12003KT P6SM FEW030 OVC250
     FM290300 VRB02KT P6SM FEW020 BKN120
     FM291400 16005KT P6SM VCSH SCT020 OVC150=



000
FTUS42 KMLB 281700
TAFMCO
TAF
KMCO 281723Z 2818/2918 06007KT P6SM VCSH SCT025 BKN035 BKN170
     FM282000 11008KT P6SM VCTS SCT040CB BKN100 OVC250
     FM282300 15003KT P6SM FEW030 OVC250
     FM290300 VRB02KT P6SM FEW020 BKN120
     FM291400 13005KT P6SM VCSH SCT020 OVC150=



000
FTUS42 KMLB 281700
TAFVRB
TAF
KVRB 281723Z 2818/2918 11009KT P6SM FEW025
     FM282000 10009KT P6SM VCSH BKN035 BKN250
     FM290000 10007KT P6SM VCSH SCT020 BKN250
     FM290300 11003KT P6SM VCSH BKN020
     FM291300 12007KT P6SM SCT020 BKN040=



000
FTUS42 KMLB 281700
TAFMLB
TAF
KMLB 281723Z 2818/2918 10011KT P6SM SCT130 BKN250
     FM282000 10007KT P6SM VCSH BKN035 BKN250
     FM290000 11008KT P6SM VCSH SCT020 BKN250
     FM290300 13003KT P6SM VCSH BKN020
     FM291300 14007KT P6SM SCT020 BKN040=



000
FTUS42 KMLB 281700
TAFDAB
TAF
KDAB 281723Z 2818/2918 06009KT P6SM SCT020 BKN140 BKN250
     FM282000 11008KT P6SM VCTS SCT040CB BKN100 OVC250
     FM282300 11003KT P6SM FEW030 OVC250
     FM290300 VRB02KT P6SM FEW020 BKN120
     FM291400 17005KT P6SM VCSH SCT020 OVC150=



000
FTUS42 KMLB 281500 AAA
TAFMCO
TAF AMD
KMCO 281501Z 2815/2912 08008KT P6SM VCSH SCT019 BKN170
     FM281700 11008KT P6SM VCTS SCT040CB BKN100 OVC250
     FM282300 15003KT P6SM FEW030 OVC250=



000
FTUS42 KMLB 281100 AAA
TAFDAB
TAF AMD
KDAB 281155Z 2812/2912 05003KT P6SM VCSH FEW023 SCT060 SCT140
      TEMPO 2812/2813 3SM SHRA BKN020 BKN030
     FM281400 09006KT P6SM VCSH SCT030 SCT100 BKN250
     FM281800 09008KT P6SM SCT040 SCT120 BKN250
     FM282300 09005KT P6SM VCSH SCT020 BKN250=



000
FTUS42 KMLB 281100 AAA
TAFVRB
TAF AMD
KVRB 281153Z 2812/2912 08003KT P6SM VCSH SCT020 SCT030
      TEMPO 2812/2813 3SM SHRA BKN020 BKN030
     FM281500 10009KT P6SM SCT025 BKN250
     FM282300 11006KT P6SM VCSH SCT020 BKN250=



000
FTUS42 KMLB 281100
TAFSFB
TAF
KSFB 281131Z 2812/2912 01003KT P6SM SCT020 BKN250
     FM281400 10008KT P6SM VCSH SCT030 SCT100 BKN250
     FM281600 11008KT P6SM VCTS SCT040CB BKN100 OVC250
     FM282300 14003KT P6SM FEW030 OVC250=



000
FTUS42 KMLB 281100
TAFMCO
TAF
KMCO 281131Z 2812/2912 36003KT P6SM FEW024 SCT160 BKN250
     FM281400 11007KT P6SM VCSH SCT030 SCT100 BKN250
     FM281700 09008KT P6SM VCTS SCT040CB BKN100 OVC250
     FM282300 15003KT P6SM FEW030 OVC250=



000
FTUS42 KMLB 281100
TAFVRB
TAF
KVRB 281131Z 2812/2912 29003KT P6SM VCSH FEW030
     FM281500 10009KT P6SM SCT025 BKN250
     FM282300 11006KT P6SM VCSH SCT020 BKN250=



000
FTUS42 KMLB 281100
TAFMLB
TAF
KMLB 281131Z 2812/2912 00000KT P6SM VCSH SCT008
     FM281300 09007KT P6SM VCSH SCT030 SCT100 BKN250
     FM281700 10011KT P6SM SCT030 BKN250
     FM290000 11008KT P6SM VCSH SCT020 BKN250=



000
FTUS42 KMLB 281100
TAFDAB
TAF
KDAB 281131Z 2812/2912 00000KT P6SM VCSH FEW023 SCT060 SCT140
     FM281400 09006KT P6SM VCSH SCT030 SCT100 BKN250
     FM281800 09008KT P6SM SCT040 SCT120 BKN250
     FM282300 09005KT P6SM VCSH SCT020 BKN250=



000
FTUS42 KMLB 280800 AAA
TAFMCO
TAF AMD
KMCO 280859Z 2809/2906 05003KT P6SM FEW020 FEW150 BKN300
     FM281400 11007KT P6SM VCSH SCT030 SCT100 BKN250
     FM281700 09008KT P6SM VCTS SCT040CB BKN100 OVC250
     FM282300 15003KT P6SM FEW030 OVC250=



000
FTUS42 KMLB 280500
TAFVRB
TAF
KVRB 280536Z 2806/2906 11005KT P6SM VCSH SCT020 SCT100 BKN250
     FM281400 10009KT P6SM SCT025 BKN250
     FM282300 11006KT P6SM VCSH SCT020 BKN250=



000
FTUS42 KMLB 280500
TAFMCO
TAF
KMCO 280536Z 2806/2906 02003KT P6SM VCSH SCT020 OVC300
      TEMPO 2809/2811 6SM BR SCT003
     FM281400 11007KT P6SM VCSH SCT030 SCT100 BKN250
     FM281700 09008KT P6SM VCTS SCT040CB BKN100 OVC250
     FM282300 15003KT P6SM FEW030 OVC250=



000
FTUS42 KMLB 280500
TAFMLB
TAF
KMLB 280536Z 2806/2906 11005KT P6SM VCSH SCT020 BKN250
     FM281300 09007KT P6SM VCSH SCT030 SCT100 BKN250
     FM281700 10011KT P6SM SCT030 BKN250
     FM290000 11008KT P6SM VCSH SCT020 BKN250=



000
FTUS42 KMLB 280500
TAFSFB
TAF
KSFB 280536Z 2806/2906 01003KT P6SM VCSH SCT020 OVC300
      TEMPO 2809/2811 6SM BR SCT003
     FM281400 10008KT P6SM VCSH SCT030 SCT100 BKN250
     FM281600 11008KT P6SM VCTS SCT040CB BKN100 OVC250
     FM282300 14003KT P6SM FEW030 OVC250=



000
FTUS42 KMLB 280500
TAFDAB
TAF
KDAB 280536Z 2806/2906 07005KT P6SM VCSH SCT020 SCT040 BKN250
     FM281300 09008KT P6SM VCSH SCT030 SCT100 BKN250
     FM281800 09008KT P6SM SCT040 SCT120 BKN250
     FM282300 09005KT P6SM VCSH SCT020 BKN250=



000
FTUS42 KMLB 280200 AAA
TAFMCO
TAF AMD
KMCO 280259Z 2803/2824 02006KT P6SM FEW030 SCT150 BKN300
     FM281500 11008KT P6SM SCT030 SCT150 BKN250=



000
FTUS42 KMLB 272300 RRA
TAFSFB
TAF
KSFB 272342Z 2800/2824 02005KT P6SM FEW025 BKN110 BKN250
     FM281500 11007KT P6SM SCT030 SCT150 BKN250=



000
FTUS42 KMLB 272300 RRA
TAFDAB
TAF
KDAB 272342Z 2800/2824 03007KT P6SM SCT020 SCT070 BKN150
     FM280100 07003KT P6SM VCSH FEW025 SCT150 BKN250
     FM281500 09008KT P6SM SCT025 SCT150 BKN250=



000
FTUS42 KMLB 272300 RRA
TAFVRB
TAF
KVRB 272342Z 2800/2824 09006KT P6SM VCSH FEW025 SCT040 BKN150
     FM281400 10009KT P6SM SCT025 SCT150 BKN250=



000
FTUS42 KMLB 272300 RRA
TAFMCO
TAF
KMCO 272342Z 2800/2824 03008KT P6SM FEW025 BKN120 BKN300
     FM281500 11008KT P6SM SCT030 SCT150 BKN250=



000
FTUS42 KMLB 272300 RRA
TAFMLB
TAF
KMLB 272342Z 2800/2824 08006KT P6SM VCSH FEW025 SCT040 BKN150
     FM281400 10009KT P6SM SCT025 SCT150 BKN250=



000
FTUS42 KMLB 272200 AAB
TAFSFB
TAF AMD
KSFB 272212Z 2722/2818 01011KT P6SM VCSH SCT025 BKN040
      TEMPO 2722/2723 1SM +RA BKN020
     FM280000 06003KT P6SM FEW030 SCT250
     FM281500 11007KT P6SM SCT030 SCT250=



000
FTUS42 KMLB 272100 AAA
TAFMCO
TAF AMD
KMCO 272103Z 2721/2818 36007KT P6SM VCSH SCT040 BKN100 BKN250
     FM280000 05003KT P6SM FEW030 SCT250
     FM281500 11008KT P6SM SCT030 SCT250=



000
FTUS42 KMLB 271900 AAA
TAFSFB
TAF AMD
KSFB 271959Z 2720/2818 07011KT P6SM VCSH SCT025 BKN050
      TEMPO 2720/2721 11010G20KT 1SM +SHRA BKN020
     FM272100 10008KT P6SM SCT035 BKN250
     FM280000 06003KT P6SM FEW030 SCT250
     FM281500 11007KT P6SM SCT030 SCT250=



000
FTUS42 KMLB 271700
TAFSFB
TAF
KSFB 271734Z 2718/2818 07011KT P6SM VCSH SCT035 BKN250
     FM280000 06003KT P6SM FEW030 SCT250
     FM281500 11007KT P6SM SCT030 SCT250=



000
FTUS42 KMLB 271700
TAFMLB
TAF
KMLB 271734Z 2718/2818 10009KT P6SM SCT022 BKN250
     FM280100 08005KT P6SM VCSH FEW020 SCT250
     FM281400 10009KT P6SM SCT025 SCT250=



000
FTUS42 KMLB 271700
TAFVRB
TAF
KVRB 271734Z 2718/2818 10010KT P6SM SCT025 BKN250
     FM280100 10005KT P6SM VCSH FEW020 SCT250
     FM281400 10009KT P6SM SCT025 SCT250=



000
FTUS42 KMLB 271700
TAFMCO
TAF
KMCO 271734Z 2718/2818 07012KT P6SM VCSH SCT030 SCT050 BKN250
     FM280000 05003KT P6SM FEW030 SCT250
     FM281500 11008KT P6SM SCT030 SCT250=



000
FTUS42 KMLB 271700
TAFDAB
TAF
KDAB 271734Z 2718/2818 06008KT P6SM FEW025 BKN250
     FM280100 07003KT P6SM FEW025 SCT250
     FM281500 10009KT P6SM SCT025 SCT250=



000
FTUS42 KMLB 271500 AAA
TAFMCO
TAF AMD
KMCO 271503Z 2715/2812 06007KT P6SM SCT020 SCT100 BKN250
     FM271700 09008KT P6SM VCTS SCT025CB SCT040 BKN090
     FM280000 05003KT P6SM SCT080 BKN150=



    US Dept of Commerce
    National Oceanic and Atmospheric Administration
    National Weather Service
    1325 East West Highway
    Silver Spring, MD 20910
    Page Author: NWS Internet Services Team
Disclaimer
Information Quality
Credits
Glossary
Privacy Policy
Freedom of Information Act (FOIA)
About Us
Career Opportunities